Time;durP1;ratioP1;P1;durP2;ratioP2;P2;SDS_P1;SDS_P2;PMS_P1;PMS_P2;Temp;Humidity;BMP_temperature;BMP_pressure;BME280_temperature;BME280_humidity;BME280_pressure;Samples;Min_cycle;Max_cycle;Signal;HPM_P1;HPM_P2
2021/11/03 00:01:47;;;;;;;0.40;0.40;;;;;;;9.80;71.03;99119.19;111734;1193;95282;-77
2021/11/03 00:04:15;;;;;;;0.40;0.30;;;;;;;9.85;70.78;99120.35;111665;1193;138130;-78
2021/11/03 00:06:43;;;;;;;0.40;0.40;;;;;;;9.74;71.12;99118.72;111764;1193;108986;-76
2021/11/03 00:09:11;;;;;;;0.40;0.40;;;;;;;9.77;71.34;99123.89;111563;1194;94976;-77
2021/11/03 00:11:39;;;;;;;0.40;0.30;;;;;;;9.85;71.37;99126.75;111549;1193;137242;-77
2021/11/03 00:14:08;;;;;;;0.40;0.30;;;;;;;9.95;71.21;99125.40;111781;1192;107526;-78
2021/11/03 00:16:35;;;;;;;0.40;0.30;;;;;;;10.10;71.10;99125.45;111474;1196;139224;-78
2021/11/03 00:19:03;;;;;;;0.50;0.40;;;;;;;10.23;70.46;99122.60;111690;1193;95453;-77
2021/11/03 00:21:31;;;;;;;0.40;0.40;;;;;;;10.21;70.52;99120.86;111594;1193;139099;-77
2021/11/03 00:23:58;;;;;;;0.50;0.40;;;;;;;10.33;70.46;99126.38;111596;1193;107539;-78
2021/11/03 00:26:26;;;;;;;0.40;0.30;;;;;;;10.40;70.30;99125.05;111682;1193;109173;-78
2021/11/03 00:28:54;;;;;;;0.40;0.40;;;;;;;10.44;70.14;99121.80;111693;1193;137780;-77
2021/11/03 00:31:22;;;;;;;0.40;0.40;;;;;;;10.54;69.86;99123.31;111714;1192;94945;-78
2021/11/03 00:33:50;;;;;;;0.40;0.40;;;;;;;10.57;69.64;99119.98;111395;1193;138092;-78
2021/11/03 00:36:18;;;;;;;0.50;0.40;;;;;;;10.57;69.80;99120.38;111824;1192;108463;-77
2021/11/03 00:38:46;;;;;;;0.40;0.40;;;;;;;10.60;69.68;99123.04;111579;1193;94943;-77
2021/11/03 00:41:14;;;;;;;0.40;0.40;;;;;;;10.55;69.76;99120.08;111688;1193;138483;-78
2021/11/03 00:43:41;;;;;;;0.40;0.30;;;;;;;10.52;69.93;99121.97;111455;1195;107505;-77
2021/11/03 00:46:09;;;;;;;0.40;0.40;;;;;;;10.48;70.06;99119.86;111388;1195;139993;-77
2021/11/03 00:48:38;;;;;;;0.40;0.40;;;;;;;10.50;70.32;99120.83;111582;1193;95599;-77
2021/11/03 00:51:07;;;;;;;0.40;0.40;;;;;;;10.54;70.07;99118.33;111884;1193;95472;-78
2021/11/03 00:53:35;;;;;;;0.40;0.30;;;;;;;10.54;70.24;99118.00;111441;1193;137981;-78
2021/11/03 00:56:03;;;;;;;0.40;0.30;;;;;;;10.67;69.93;99117.04;111795;1193;109407;-77
2021/11/03 00:58:32;;;;;;;0.50;0.40;;;;;;;10.72;69.74;99116.60;111651;1194;139462;-77
2021/11/03 01:01:00;;;;;;;0.40;0.30;;;;;;;10.79;69.73;99113.25;111935;1192;95655;-78
2021/11/03 01:03:28;;;;;;;0.40;0.30;;;;;;;10.81;69.83;99114.76;112886;1193;138152;-77
2021/11/03 01:05:56;;;;;;;0.40;0.30;;;;;;;10.93;69.52;99114.39;111717;1193;109575;-77
2021/11/03 01:08:24;;;;;;;0.40;0.30;;;;;;;10.83;69.50;99116.12;111730;1192;94812;-78
2021/11/03 01:10:53;;;;;;;0.40;0.30;;;;;;;10.77;69.78;99120.98;111853;1193;137679;-78
2021/11/03 01:13:23;;;;;;;0.40;0.40;;;;;;;10.73;70.03;99122.27;111955;1193;107550;-78
2021/11/03 01:15:52;;;;;;;0.40;0.30;;;;;;;10.84;69.94;99117.80;111844;1192;138458;-77
2021/11/03 01:18:20;;;;;;;0.40;0.30;;;;;;;10.90;69.79;99115.94;114021;1192;94888;-77
2021/11/03 01:20:48;;;;;;;0.50;0.50;;;;;;;10.89;69.80;99119.02;112007;1192;94923;-78
2021/11/03 01:23:16;;;;;;;0.40;0.40;;;;;;;10.99;69.35;99115.51;111813;1192;137850;-78
2021/11/03 01:25:44;;;;;;;0.40;0.30;;;;;;;11.08;69.13;99117.91;111960;1192;108238;-78
2021/11/03 01:28:12;;;;;;;0.40;0.30;;;;;;;11.12;69.17;99120.93;111574;1193;138668;-78
2021/11/03 01:30:40;;;;;;;0.40;0.40;;;;;;;11.13;69.16;99123.54;114863;1193;93272;-78
2021/11/03 01:33:08;;;;;;;0.40;0.40;;;;;;;11.11;69.31;99122.77;115064;1192;105969;-78
2021/11/03 01:35:36;;;;;;;0.40;0.30;;;;;;;11.07;69.51;99119.91;114796;1192;137959;-78
2021/11/03 01:38:06;;;;;;;0.40;0.30;;;;;;;11.11;69.56;99127.36;114746;1193;95180;-78
2021/11/03 01:40:39;;;;;;;0.40;0.40;;;;;;;11.16;69.46;99127.48;111533;1193;137284;-77
2021/11/03 01:43:08;;;;;;;0.40;0.30;;;;;;;11.15;69.43;99127.88;111763;1192;107549;-78
2021/11/03 01:45:36;;;;;;;0.40;0.30;;;;;;;11.05;69.55;99123.23;111594;1195;138386;-78
2021/11/03 01:48:06;;;;;;;0.40;0.30;;;;;;;10.97;70.07;99124.13;111599;1193;94890;-78
2021/11/03 01:50:41;;;;;;;0.40;0.30;;;;;;;10.88;70.37;99126.71;111659;1193;95450;-76
2021/11/03 01:53:29;;;;;;;0.40;0.30;;;;;;;10.88;70.46;99126.15;113383;1191;138587;-77
2021/11/03 01:56:01;;;;;;;0.40;0.30;;;;;;;10.89;70.50;99131.23;111656;1193;108421;-78
2021/11/03 01:58:44;;;;;;;0.40;0.30;;;;;;;10.94;70.66;99129.80;114855;1192;138808;-78
2021/11/03 02:01:12;;;;;;;0.40;0.30;;;;;;;10.95;70.36;99132.40;114560;1193;94789;-78
2021/11/03 02:03:41;;;;;;;0.40;0.30;;;;;;;10.90;70.57;99128.16;114619;1193;137739;-78
2021/11/03 02:06:13;;;;;;;0.40;0.40;;;;;;;10.90;70.68;99125.91;114888;1194;108538;-78
2021/11/03 02:08:43;;;;;;;0.40;0.30;;;;;;;10.93;70.89;99124.69;114741;1192;94488;-78
2021/11/03 02:11:14;;;;;;;0.40;0.30;;;;;;;10.93;70.64;99128.40;111524;1193;138673;-77
2021/11/03 02:13:44;;;;;;;0.40;0.30;;;;;;;10.96;70.64;99127.02;114805;1192;108560;-77
2021/11/03 02:16:14;;;;;;;0.40;0.30;;;;;;;10.90;70.64;99127.31;114833;1192;137696;-77
2021/11/03 02:18:42;;;;;;;0.40;0.30;;;;;;;10.85;70.69;99130.90;114916;1192;93393;-77
2021/11/03 02:21:15;;;;;;;0.40;0.30;;;;;;;10.83;70.98;99133.82;111949;1192;95723;-76
2021/11/03 02:24:07;;;;;;;0.40;0.30;;;;;;;10.75;71.08;99134.41;114782;1193;137797;-77
2021/11/03 02:26:39;;;;;;;0.40;0.30;;;;;;;10.74;71.27;99137.13;111664;1193;108503;-77
2021/11/03 02:29:09;;;;;;;0.40;0.40;;;;;;;10.79;71.05;99140.09;111481;1193;138058;-77
2021/11/03 02:31:41;;;;;;;0.40;0.30;;;;;;;10.72;71.31;99139.49;115009;1192;93094;-77
2021/11/03 02:34:11;;;;;;;0.40;0.30;;;;;;;10.70;71.27;99140.31;112427;1195;138126;-77
2021/11/03 02:36:55;;;;;;;0.40;0.30;;;;;;;10.78;71.40;99135.34;112287;1193;107274;-77
2021/11/03 02:39:56;;;;;;;0.40;0.30;;;;;;;10.73;71.25;99138.07;111838;1193;138336;-77
2021/11/03 02:42:25;;;;;;;0.40;0.30;;;;;;;10.65;71.39;99140.73;111551;1193;95982;-76
2021/11/03 02:44:56;;;;;;;0.40;0.30;;;;;;;10.56;71.72;99138.67;111630;1193;107502;-76
2021/11/03 02:47:24;;;;;;;0.40;0.30;;;;;;;10.52;71.89;99137.41;111698;1193;138534;-76
2021/11/03 02:49:52;;;;;;;0.40;0.30;;;;;;;10.56;71.79;99138.69;111622;1193;94941;-76
2021/11/03 02:52:24;;;;;;;0.40;0.30;;;;;;;10.60;71.62;99143.98;114779;1192;138200;-76
2021/11/03 02:54:52;;;;;;;0.40;0.30;;;;;;;10.62;71.63;99141.61;114915;1192;106829;-77
2021/11/03 02:57:20;;;;;;;0.50;0.40;;;;;;;10.54;71.57;99143.36;115247;1192;108501;-77
2021/11/03 02:59:52;;;;;;;0.40;0.30;;;;;;;10.50;71.84;99145.34;114785;1193;139495;-76
2021/11/03 03:02:20;;;;;;;0.40;0.30;;;;;;;10.51;71.75;99151.31;112387;1192;94973;-76
2021/11/03 03:04:51;;;;;;;0.40;0.30;;;;;;;10.56;71.78;99156.05;111486;1194;139294;-76
2021/11/03 03:07:20;;;;;;;0.40;0.30;;;;;;;10.62;71.76;99158.29;111683;1193;110080;-76
2021/11/03 03:09:48;;;;;;;0.40;0.30;;;;;;;10.65;71.75;99161.86;111341;1193;139301;-76
2021/11/03 03:12:19;;;;;;;0.40;0.40;;;;;;;10.70;71.58;99159.52;111631;1193;95026;-76
2021/11/03 03:14:50;;;;;;;0.40;0.40;;;;;;;10.75;71.41;99158.05;111643;1195;107324;-76
2021/11/03 03:17:20;;;;;;;0.40;0.30;;;;;;;10.81;71.28;99157.91;113937;1193;138215;-76
2021/11/03 03:19:48;;;;;;;0.40;0.30;;;;;;;10.85;71.23;99160.02;112149;1193;95085;-75
2021/11/03 03:22:19;;;;;;;0.40;0.30;;;;;;;10.81;71.23;99160.38;111484;1193;138269;-76
2021/11/03 03:24:52;;;;;;;0.40;0.30;;;;;;;10.82;71.23;99164.77;114874;1192;107549;-76
2021/11/03 03:27:24;;;;;;;0.40;0.40;;;;;;;10.85;71.14;99163.77;112087;1195;109013;-76
2021/11/03 03:29:52;;;;;;;0.40;0.40;;;;;;;10.84;70.97;99166.45;111387;1194;138750;-77
2021/11/03 03:32:22;;;;;;;0.40;0.40;;;;;;;10.82;71.03;99170.09;111628;1193;95545;-75
2021/11/03 03:34:51;;;;;;;0.40;0.40;;;;;;;10.73;70.80;99167.34;111549;1193;138241;-76
2021/11/03 03:37:19;;;;;;;0.40;0.30;;;;;;;10.67;71.14;99168.88;111669;1193;108524;-76
2021/11/03 03:39:51;;;;;;;0.40;0.30;;;;;;;10.64;71.16;99168.83;111479;1193;140171;-76
2021/11/03 03:42:19;;;;;;;0.40;0.30;;;;;;;10.69;71.28;99169.48;111623;1192;94985;-77
2021/11/03 03:44:48;;;;;;;0.40;0.30;;;;;;;10.73;71.13;99172.88;112002;1193;108498;-77
2021/11/03 03:47:16;;;;;;;0.40;0.40;;;;;;;10.70;71.15;99175.46;111642;1193;138421;-77
2021/11/03 03:49:45;;;;;;;0.40;0.30;;;;;;;10.75;71.26;99176.33;114938;1192;94224;-77
2021/11/03 03:52:14;;;;;;;0.40;0.30;;;;;;;10.82;70.94;99173.32;113031;1192;139983;-77
2021/11/03 03:54:42;;;;;;;0.40;0.30;;;;;;;10.85;70.99;99171.94;112966;1192;107306;-77
2021/11/03 03:57:10;;;;;;;0.40;0.30;;;;;;;10.92;70.89;99176.05;111626;1200;108309;-77
2021/11/03 03:59:38;;;;;;;0.40;0.30;;;;;;;10.98;70.51;99179.14;111891;1192;138384;-77
2021/11/03 04:02:06;;;;;;;0.40;0.40;;;;;;;10.97;70.48;99178.29;111985;1193;94872;-77
2021/11/03 04:04:35;;;;;;;0.40;0.40;;;;;;;11.04;70.51;99176.90;113272;1192;138318;-77
2021/11/03 04:07:03;;;;;;;0.40;0.30;;;;;;;11.03;70.32;99173.21;112015;1192;108095;-77
2021/11/03 04:09:31;;;;;;;0.40;0.30;;;;;;;10.96;70.16;99174.08;112177;1192;138405;-77
2021/11/03 04:12:00;;;;;;;0.40;0.30;;;;;;;10.94;70.25;99174.52;111646;1193;94852;-77
2021/11/03 04:14:28;;;;;;;0.40;0.40;;;;;;;10.92;70.29;99178.34;111950;1193;109115;-77
2021/11/03 04:16:55;;;;;;;0.40;0.30;;;;;;;10.91;70.17;99177.52;111686;1193;138348;-77
2021/11/03 04:19:23;;;;;;;0.40;0.30;;;;;;;10.84;70.52;99180.14;111605;1193;95020;-77
2021/11/03 04:21:52;;;;;;;0.40;0.40;;;;;;;10.84;70.68;99181.70;111762;1193;138478;-77
2021/11/03 04:24:34;;;;;;;0.40;0.40;;;;;;;10.84;70.46;99179.79;111596;1196;108056;-77
2021/11/03 04:27:02;;;;;;;0.40;0.30;;;;;;;10.87;70.56;99180.88;111700;1193;108463;-77
2021/11/03 04:29:30;;;;;;;0.50;0.40;;;;;;;10.94;70.36;99181.98;111540;1193;137839;-77
2021/11/03 04:31:58;;;;;;;0.40;0.30;;;;;;;10.93;70.39;99187.20;111604;1193;94916;-76
2021/11/03 04:34:26;;;;;;;0.40;0.30;;;;;;;11.05;70.27;99187.00;111479;1193;139862;-76
2021/11/03 04:36:57;;;;;;;0.40;0.30;;;;;;;11.07;69.75;99189.19;111637;1194;108423;-76
2021/11/03 04:39:25;;;;;;;0.40;0.30;;;;;;;11.01;69.56;99190.38;111685;1194;96390;-76
2021/11/03 04:41:53;;;;;;;0.40;0.40;;;;;;;10.95;69.93;99194.17;111486;1193;138864;-76
2021/11/03 04:44:21;;;;;;;0.40;0.30;;;;;;;10.99;69.86;99199.51;111653;1193;107325;-76
2021/11/03 04:46:49;;;;;;;0.40;0.40;;;;;;;10.93;69.99;99201.41;111527;1193;138500;-76
2021/11/03 04:49:19;;;;;;;0.40;0.30;;;;;;;10.87;70.04;99207.88;112620;1193;94911;-77
2021/11/03 04:51:52;;;;;;;0.40;0.40;;;;;;;10.80;70.25;99213.73;111599;1193;137716;-76
2021/11/03 04:54:20;;;;;;;0.40;0.40;;;;;;;10.81;70.68;99213.66;111715;1193;108833;-76
2021/11/03 04:56:49;;;;;;;0.50;0.40;;;;;;;10.85;70.57;99212.60;111601;1193;109218;-76
2021/11/03 04:59:18;;;;;;;0.50;0.40;;;;;;;10.91;70.43;99218.18;111582;1196;137809;-76
2021/11/03 05:01:48;;;;;;;0.40;0.40;;;;;;;10.99;70.21;99223.86;111678;1193;94897;-76
2021/11/03 05:04:16;;;;;;;0.40;0.40;;;;;;;10.93;70.13;99228.94;111561;1193;138646;-77
2021/11/03 05:06:48;;;;;;;0.50;0.40;;;;;;;10.96;70.32;99233.20;112257;1193;108491;-76
2021/11/03 05:09:17;;;;;;;0.40;0.40;;;;;;;10.96;70.06;99229.83;111680;1193;95254;-76
2021/11/03 05:11:45;;;;;;;0.40;0.40;;;;;;;10.97;70.16;99233.54;111593;1192;138042;-75
2021/11/03 05:14:13;;;;;;;0.40;0.40;;;;;;;10.98;69.93;99237.39;111808;1193;108016;-77
2021/11/03 05:16:45;;;;;;;0.40;0.40;;;;;;;10.82;70.10;99247.53;111519;1193;138376;-77
2021/11/03 05:19:23;;;;;;;0.40;0.40;;;;;;;10.72;70.33;99254.00;111692;1193;96576;-76
2021/11/03 05:21:56;;;;;;;0.40;0.40;;;;;;;10.57;70.58;99251.15;111771;1193;138096;-77
2021/11/03 05:24:25;;;;;;;0.50;0.40;;;;;;;10.56;70.84;99255.98;111639;1193;108227;-76
2021/11/03 05:26:54;;;;;;;0.40;0.40;;;;;;;10.61;70.70;99256.83;111579;1195;108143;-76
2021/11/03 05:29:23;;;;;;;0.40;0.40;;;;;;;10.52;70.74;99259.54;111620;1193;139051;-78
2021/11/03 05:31:50;;;;;;;0.40;0.40;;;;;;;10.51;70.90;99257.81;111659;1193;95324;-77
2021/11/03 05:34:18;;;;;;;0.50;0.40;;;;;;;10.45;70.91;99257.52;111611;1193;138117;-78
2021/11/03 05:36:46;;;;;;;0.40;0.30;;;;;;;10.52;70.98;99262.56;111645;1195;108506;-77
2021/11/03 05:39:16;;;;;;;0.40;0.40;;;;;;;10.56;70.85;99261.66;111616;1195;94964;-77
2021/11/03 05:41:44;;;;;;;0.40;0.30;;;;;;;10.53;70.79;99263.23;111536;1193;138953;-77
2021/11/03 05:44:16;;;;;;;0.40;0.40;;;;;;;10.48;70.95;99269.11;111616;1193;109111;-77
2021/11/03 05:46:47;;;;;;;0.40;0.40;;;;;;;10.46;71.11;99273.46;111804;1192;141591;-77
2021/11/03 05:49:17;;;;;;;0.40;0.40;;;;;;;10.49;71.14;99275.10;111873;1193;94920;-76
2021/11/03 05:51:47;;;;;;;0.40;0.40;;;;;;;10.46;71.09;99284.65;111823;1193;139325;-77
2021/11/03 05:54:17;;;;;;;0.50;0.40;;;;;;;10.42;71.14;99285.15;114640;1192;107335;-77
2021/11/03 05:56:47;;;;;;;0.50;0.40;;;;;;;10.41;71.29;99286.45;114898;1192;108816;-77
2021/11/03 05:59:15;;;;;;;0.50;0.40;;;;;;;10.44;71.16;99293.09;114724;1192;139521;-77
2021/11/03 06:01:42;;;;;;;0.40;0.30;;;;;;;10.45;71.11;99300.67;113598;1193;94876;-77
2021/11/03 06:04:11;;;;;;;0.40;0.40;;;;;;;10.45;71.27;99305.09;111304;1195;138226;-78
2021/11/03 06:06:38;;;;;;;0.50;0.40;;;;;;;10.39;71.26;99312.42;111549;1193;108468;-77
2021/11/03 06:09:09;;;;;;;0.40;0.40;;;;;;;10.38;71.41;99316.20;111675;1193;96789;-77
2021/11/03 06:11:39;;;;;;;0.40;0.30;;;;;;;10.40;71.38;99319.35;111369;1192;138496;-76
2021/11/03 06:14:08;;;;;;;0.40;0.40;;;;;;;10.39;71.20;99322.93;115237;1192;107436;-77
2021/11/03 06:16:37;;;;;;;0.40;0.40;;;;;;;10.35;71.24;99326.09;114787;1192;139015;-78
2021/11/03 06:19:05;;;;;;;0.40;0.40;;;;;;;10.39;71.26;99326.13;113094;1192;96134;-75
2021/11/03 06:21:33;;;;;;;0.50;0.40;;;;;;;10.42;71.12;99328.45;111834;1192;138090;-77
2021/11/03 06:24:01;;;;;;;0.40;0.40;;;;;;;10.41;70.78;99331.70;112066;1195;109545;-76
2021/11/03 06:26:29;;;;;;;0.40;0.40;;;;;;;10.40;70.63;99343.63;111822;1195;108470;-77
2021/11/03 06:28:57;;;;;;;0.40;0.40;;;;;;;10.40;70.69;99345.95;111543;1194;137751;-76
2021/11/03 06:31:25;;;;;;;0.40;0.40;;;;;;;10.36;70.64;99353.00;111727;1193;94900;-76
2021/11/03 06:33:53;;;;;;;0.40;0.40;;;;;;;10.34;70.80;99352.73;111531;1193;138586;-77
2021/11/03 06:36:21;;;;;;;0.40;0.30;;;;;;;10.35;70.81;99351.09;111803;1192;108511;-76
2021/11/03 06:38:50;;;;;;;0.40;0.40;;;;;;;10.27;70.59;99353.00;111922;1192;94871;-76
2021/11/03 06:41:20;;;;;;;0.40;0.40;;;;;;;10.24;70.65;99356.88;111673;1192;137308;-76
2021/11/03 06:43:49;;;;;;;0.40;0.40;;;;;;;10.23;70.70;99363.98;111710;1192;107949;-77
2021/11/03 06:46:19;;;;;;;0.40;0.40;;;;;;;10.29;70.91;99360.22;111780;1192;138633;-78
2021/11/03 06:48:49;;;;;;;0.40;0.30;;;;;;;10.31;70.62;99364.38;111853;1193;95365;-77
2021/11/03 06:51:17;;;;;;;0.40;0.40;;;;;;;10.30;70.45;99374.90;112048;1192;94885;-77
2021/11/03 06:53:44;;;;;;;0.40;0.30;;;;;;;10.34;70.42;99380.08;111572;1193;138778;-76
2021/11/03 06:56:12;;;;;;;0.40;0.40;;;;;;;10.40;70.07;99384.98;111707;1192;109012;-77
2021/11/03 06:58:40;;;;;;;0.40;0.30;;;;;;;10.44;69.98;99384.44;111572;1195;139325;-77
2021/11/03 07:01:12;;;;;;;0.40;0.30;;;;;;;10.47;69.99;99380.58;111776;1192;95001;-77
2021/11/03 07:03:42;;;;;;;0.40;0.30;;;;;;;10.47;69.82;99382.39;111517;1193;138526;-77
2021/11/03 07:06:10;;;;;;;0.40;0.40;;;;;;;10.50;69.86;99379.22;114297;1192;109035;-76
2021/11/03 07:08:38;;;;;;;0.40;0.30;;;;;;;10.58;69.62;99378.91;111891;1192;95524;-77
2021/11/03 07:11:06;;;;;;;0.40;0.30;;;;;;;10.67;69.44;99388.43;111630;1193;138466;-76
2021/11/03 07:13:35;;;;;;;0.40;0.40;;;;;;;10.76;69.48;99389.48;111584;1195;108513;-76
2021/11/03 07:16:04;;;;;;;0.40;0.30;;;;;;;10.90;69.29;99389.75;111707;1193;139893;-76
2021/11/03 07:18:31;;;;;;;0.40;0.30;;;;;;;10.87;69.23;99396.25;111906;1192;95862;-77
2021/11/03 07:20:59;;;;;;;0.40;0.30;;;;;;;10.82;69.31;99397.76;111823;1192;95378;-77
2021/11/03 07:23:27;;;;;;;0.40;0.30;;;;;;;10.78;69.33;99401.45;111554;1193;138491;-77
2021/11/03 07:25:54;;;;;;;0.40;0.30;;;;;;;10.81;69.70;99402.22;111499;1196;108492;-77
2021/11/03 07:28:23;;;;;;;0.40;0.40;;;;;;;10.81;69.76;99400.44;111593;1193;138403;-77
2021/11/03 07:30:51;;;;;;;0.40;0.40;;;;;;;10.94;69.88;99404.01;111681;1193;95710;-77
2021/11/03 07:33:20;;;;;;;0.40;0.30;;;;;;;10.96;69.90;99406.93;111878;1192;108511;-77
2021/11/03 07:35:48;;;;;;;0.40;0.30;;;;;;;11.01;69.41;99410.04;114701;1192;138268;-77
2021/11/03 07:38:17;;;;;;;0.40;0.30;;;;;;;10.95;69.55;99412.13;112674;1192;94873;-78
2021/11/03 07:40:49;;;;;;;0.40;0.30;;;;;;;10.86;69.72;99414.09;111551;1193;138644;-76
2021/11/03 07:43:19;;;;;;;0.40;0.40;;;;;;;10.82;69.90;99419.73;111928;1192;109042;-76
2021/11/03 07:45:49;;;;;;;0.40;0.40;;;;;;;10.76;70.34;99424.13;115090;1192;137570;-76
2021/11/03 07:48:18;;;;;;;0.50;0.40;;;;;;;10.77;70.39;99425.14;114872;1192;93466;-77
2021/11/03 07:50:50;;;;;;;0.40;0.30;;;;;;;10.90;70.55;99427.42;112207;1193;94946;-77
2021/11/03 07:53:18;;;;;;;0.40;0.30;;;;;;;10.91;70.16;99430.40;114784;1193;139516;-77
2021/11/03 07:55:49;;;;;;;0.40;0.30;;;;;;;10.94;70.29;99435.23;112972;1193;108476;-77
2021/11/03 07:58:21;;;;;;;0.40;0.30;;;;;;;10.93;70.31;99439.38;111417;1193;138314;-77
2021/11/03 08:00:51;;;;;;;0.40;0.30;;;;;;;11.04;70.46;99444.77;112246;1193;95357;-76
2021/11/03 08:03:20;;;;;;;0.40;0.30;;;;;;;11.04;69.95;99443.70;111644;1192;107519;-77
2021/11/03 08:05:50;;;;;;;0.40;0.30;;;;;;;10.95;70.11;99445.12;111529;1193;138020;-77
2021/11/03 08:08:21;;;;;;;0.40;0.30;;;;;;;10.91;70.41;99448.17;111764;1193;95351;-77
2021/11/03 08:10:53;;;;;;;0.40;0.30;;;;;;;10.86;70.38;99454.74;114823;1191;138234;-77
2021/11/03 08:13:27;;;;;;;0.40;0.30;;;;;;;10.90;70.67;99455.31;113503;1193;108692;-77
2021/11/03 08:15:57;;;;;;;0.40;0.30;;;;;;;10.94;70.61;99459.06;114750;1192;138777;-77
2021/11/03 08:18:32;;;;;;;0.40;0.40;;;;;;;10.95;70.43;99458.96;114817;1193;93523;-77
2021/11/03 08:21:00;;;;;;;0.40;0.40;;;;;;;10.96;70.42;99456.27;114934;1193;93116;-77
2021/11/03 08:23:28;;;;;;;0.40;0.30;;;;;;;10.98;70.59;99458.52;114782;1192;141391;-77
2021/11/03 08:25:56;;;;;;;0.40;0.30;;;;;;;11.03;70.10;99458.64;111748;1192;108447;-77
2021/11/03 08:28:23;;;;;;;0.40;0.40;;;;;;;11.12;69.76;99462.51;111460;1193;137868;-77
2021/11/03 08:30:53;;;;;;;0.50;0.40;;;;;;;11.17;69.58;99464.98;111627;1192;94933;-77
2021/11/03 08:33:22;;;;;;;0.40;0.30;;;;;;;11.24;69.93;99467.89;111774;1192;107609;-77
2021/11/03 08:35:54;;;;;;;0.40;0.30;;;;;;;11.38;69.70;99462.10;111534;1192;138568;-77
2021/11/03 08:38:38;;;;;;;0.40;0.30;;;;;;;11.35;68.92;99466.84;111610;1193;94963;-77
2021/11/03 08:41:08;;;;;;;0.40;0.30;;;;;;;11.29;68.86;99467.13;113130;1192;137518;-77
2021/11/03 08:43:36;;;;;;;0.40;0.30;;;;;;;11.29;69.41;99472.25;111660;1193;107427;-76
2021/11/03 08:46:06;;;;;;;0.40;0.30;;;;;;;11.39;69.14;99474.46;112023;1193;138593;-77
2021/11/03 08:48:49;;;;;;;0.40;0.30;;;;;;;11.54;68.66;99477.72;111948;1192;95130;-77
2021/11/03 08:51:17;;;;;;;0.40;0.30;;;;;;;11.50;68.69;99483.60;111777;1192;94883;-78
2021/11/03 08:53:44;;;;;;;0.40;0.40;;;;;;;11.49;69.47;99492.33;111530;1193;138359;-75
2021/11/03 08:56:14;;;;;;;0.40;0.30;;;;;;;11.43;68.30;99491.91;111711;1193;106723;-77
2021/11/03 08:58:42;;;;;;;0.40;0.30;;;;;;;11.32;68.45;99495.06;112056;1192;138024;-77
2021/11/03 09:01:11;;;;;;;0.40;0.40;;;;;;;11.23;68.57;99497.75;111563;1193;94971;-76
2021/11/03 09:03:40;;;;;;;0.40;0.30;;;;;;;11.25;68.84;99495.04;111610;1192;138298;-76
2021/11/03 09:06:09;;;;;;;0.40;0.30;;;;;;;11.14;68.26;99499.73;111718;1193;109505;-77
2021/11/03 09:08:41;;;;;;;0.40;0.30;;;;;;;11.06;68.61;99498.15;111855;1192;96085;-77
2021/11/03 09:11:09;;;;;;;0.40;0.30;;;;;;;11.07;68.95;99502.89;111734;1192;137834;-78
2021/11/03 09:13:37;;;;;;;0.40;0.30;;;;;;;11.12;69.00;99499.46;112584;1194;107499;-77
2021/11/03 09:16:05;;;;;;;0.40;0.30;;;;;;;11.21;69.07;99502.45;111549;1192;138892;-78
2021/11/03 09:18:34;;;;;;;0.40;0.30;;;;;;;11.41;68.97;99505.50;112137;1192;95027;-77
2021/11/03 09:21:04;;;;;;;0.40;0.40;;;;;;;11.56;68.46;99513.03;111667;1192;95124;-77
2021/11/03 09:23:32;;;;;;;0.40;0.30;;;;;;;11.60;67.89;99511.05;111692;1192;137911;-77
2021/11/03 09:26:01;;;;;;;0.40;0.30;;;;;;;11.63;67.83;99509.51;111763;1192;108451;-77
2021/11/03 09:28:32;;;;;;;0.40;0.30;;;;;;;11.71;67.86;99508.09;111735;1192;138166;-77
2021/11/03 09:31:03;;;;;;;0.40;0.30;;;;;;;11.82;67.71;99509.36;111690;1193;95273;-77
2021/11/03 09:33:36;;;;;;;0.40;0.30;;;;;;;11.89;67.13;99507.29;111812;1192;108428;-78
2021/11/03 09:36:06;;;;;;;0.40;0.30;;;;;;;11.87;66.82;99506.13;111717;1192;138207;-77
2021/11/03 09:38:35;;;;;;;0.40;0.30;;;;;;;12.00;67.22;99509.11;111939;1192;94896;-77
2021/11/03 09:41:16;;;;;;;0.40;0.30;;;;;;;12.16;66.79;99511.93;111591;1193;137490;-77
2021/11/03 09:43:56;;;;;;;0.40;0.30;;;;;;;12.16;66.36;99514.94;111832;1193;108518;-76
2021/11/03 09:46:37;;;;;;;0.40;0.30;;;;;;;12.16;67.20;99519.56;111654;1196;138621;-77
2021/11/03 09:49:23;;;;;;;0.40;0.30;;;;;;;12.11;66.60;99526.02;111719;1193;95367;-77
2021/11/03 09:52:03;;;;;;;0.40;0.30;;;;;;;11.99;65.94;99527.65;111987;1192;139626;-77
2021/11/03 09:54:35;;;;;;;0.40;0.30;;;;;;;11.92;66.75;99527.58;111757;1192;107584;-77
2021/11/03 09:57:26;;;;;;;0.40;0.30;;;;;;;11.96;66.92;99532.09;111737;1192;108572;-77
2021/11/03 10:00:40;;;;;;;0.40;0.30;;;;;;;12.01;66.39;99535.02;111617;1192;139562;-78
2021/11/03 10:03:23;;;;;;;0.40;0.30;;;;;;;12.07;67.16;99532.60;111275;1197;95134;-77
2021/11/03 10:06:13;;;;;;;0.40;0.30;;;;;;;12.20;66.77;99533.80;111003;1197;137988;-78
2021/11/03 10:08:43;;;;;;;0.40;0.30;;;;;;;12.32;67.20;99531.80;111620;1192;108497;-77
2021/11/03 10:11:23;;;;;;;0.40;0.30;;;;;;;12.32;66.09;99537.70;111826;1192;137942;-77
2021/11/03 10:13:58;;;;;;;0.40;0.30;;;;;;;12.31;66.39;99541.45;111574;1193;96368;-77
2021/11/03 10:16:28;;;;;;;0.40;0.30;;;;;;;12.32;65.92;99542.14;113256;1192;138942;-78
2021/11/03 10:19:14;;;;;;;0.40;0.30;;;;;;;12.37;66.21;99546.17;111947;1192;109136;-78
2021/11/03 10:21:49;;;;;;;0.40;0.30;;;;;;;12.44;65.96;99546.92;111983;1192;95774;-78
2021/11/03 10:24:17;;;;;;;0.40;0.30;;;;;;;12.51;66.13;99549.62;114838;1192;138068;-77
2021/11/03 10:27:02;;;;;;;0.40;0.30;;;;;;;12.56;65.83;99540.83;113282;1192;106530;-76
2021/11/03 10:29:38;;;;;;;0.40;0.30;;;;;;;12.65;66.04;99544.48;111551;1193;139110;-77
2021/11/03 10:32:09;;;;;;;0.40;0.20;;;;;;;12.88;65.69;99539.41;111950;1192;94918;-77
2021/11/03 10:34:39;;;;;;;0.40;0.20;;;;;;;12.92;65.01;99545.11;111837;1192;137769;-77
2021/11/03 10:37:16;;;;;;;0.40;0.20;;;;;;;12.92;64.33;99549.79;111469;1195;108514;-77
2021/11/03 10:39:49;;;;;;;0.40;0.30;;;;;;;13.08;64.91;99548.98;111618;1192;108467;-75
2021/11/03 10:42:23;;;;;;;0.40;0.20;;;;;;;13.26;64.60;99541.63;114848;1192;138301;-77
2021/11/03 10:45:27;;;;;;;0.40;0.20;;;;;;;13.35;65.00;99544.03;113193;1192;95425;-77
2021/11/03 10:48:23;;;;;;;0.40;0.20;;;;;;;13.58;64.14;99545.02;111871;1193;137558;-78
2021/11/03 10:51:12;;;;;;;0.40;0.20;;;;;;;13.54;63.51;99541.84;111705;1193;110019;-77
2021/11/03 10:53:40;;;;;;;0.40;0.20;;;;;;;13.53;63.15;99543.30;111894;1192;137472;-77
2021/11/03 10:56:32;;;;;;;0.40;0.20;;;;;;;13.58;63.06;99548.79;111921;1192;95000;-77
2021/11/03 10:59:05;;;;;;;0.40;0.20;;;;;;;13.55;63.11;99548.38;113957;1192;138034;-78
2021/11/03 11:01:38;;;;;;;0.40;0.20;;;;;;;13.41;63.12;99545.37;111935;1192;109723;-78
2021/11/03 11:04:14;;;;;;;0.40;0.20;;;;;;;13.26;63.08;99545.55;111868;1192;138526;-77
2021/11/03 11:06:46;;;;;;;0.40;0.20;;;;;;;13.22;63.31;99547.91;111686;1195;94862;-77
2021/11/03 11:09:31;;;;;;;0.40;0.30;;;;;;;13.19;63.30;99548.56;114586;1192;106921;-77
2021/11/03 11:12:01;;;;;;;0.40;0.20;;;;;;;13.17;62.92;99546.52;115020;1192;139487;-78
2021/11/03 11:14:31;;;;;;;0.40;0.20;;;;;;;13.13;63.52;99549.09;114880;1192;92812;-77
2021/11/03 11:17:12;;;;;;;0.40;0.20;;;;;;;13.14;63.78;99554.73;112364;1193;139671;-77
2021/11/03 11:19:59;;;;;;;0.40;0.20;;;;;;;13.14;64.53;99556.65;111796;1192;108823;-79
2021/11/03 11:22:29;;;;;;;0.40;0.20;;;;;;;13.21;64.47;99558.64;111854;1192;138095;-77
2021/11/03 11:25:07;;;;;;;0.40;0.20;;;;;;;13.31;63.47;99560.98;111972;1192;95370;-78
2021/11/03 11:27:43;;;;;;;0.40;0.20;;;;;;;13.17;63.56;99558.48;111740;1192;95187;-78
2021/11/03 11:30:23;;;;;;;0.40;0.20;;;;;;;13.01;63.67;99558.59;111593;1192;138242;-77
2021/11/03 11:33:12;;;;;;;0.40;0.20;;;;;;;12.98;62.63;99560.52;111780;1192;108550;-77
2021/11/03 11:36:10;;;;;;;0.40;0.20;;;;;;;13.00;62.77;99562.52;111787;1192;138626;-77
2021/11/03 11:38:41;;;;;;;0.40;0.20;;;;;;;13.06;61.73;99567.43;111871;1192;94986;-77